Map

Track Data

SID SEASON NUMBER BASIN SUBBASIN NAME ISO_TIME NATURE LAT LON WMO_WIND WMO_PRES WMO_AGENCY TRACK_TYPE DIST2LAND LANDFALL IFLAG USA_AGENCY USA_ATCF_ID USA_LAT USA_LON USA_RECORD USA_STATUS USA_WIND USA_PRES USA_SSHS USA_R34_NE USA_R34_SE USA_R34_SW USA_R34_NW USA_R50_NE USA_R50_SE USA_R50_SW USA_R50_NW USA_R64_NE USA_R64_SE USA_R64_SW USA_R64_NW USA_POCI USA_ROCI USA_RMW USA_EYE TOKYO_LAT TOKYO_LON TOKYO_GRADE TOKYO_WIND TOKYO_PRES TOKYO_R50_DIR TOKYO_R50_LONG TOKYO_R50_SHORT TOKYO_R30_DIR TOKYO_R30_LONG TOKYO_R30_SHORT TOKYO_LAND CMA_LAT CMA_LON CMA_CAT CMA_WIND CMA_PRES HKO_LAT HKO_LON HKO_CAT HKO_WIND HKO_PRES NEWDELHI_LAT NEWDELHI_LON NEWDELHI_GRADE NEWDELHI_WIND NEWDELHI_PRES NEWDELHI_CI NEWDELHI_DP NEWDELHI_POCI REUNION_LAT REUNION_LON REUNION_TYPE REUNION_WIND REUNION_PRES REUNION_TNUM REUNION_CI REUNION_RMW REUNION_R34_NE REUNION_R34_SE REUNION_R34_SW REUNION_R34_NW REUNION_R50_NE REUNION_R50_SE REUNION_R50_SW REUNION_R50_NW REUNION_R64_NE REUNION_R64_SE REUNION_R64_SW REUNION_R64_NW BOM_LAT BOM_LON BOM_TYPE BOM_WIND BOM_PRES BOM_TNUM BOM_CI BOM_RMW BOM_R34_NE BOM_R34_SE BOM_R34_SW BOM_R34_NW BOM_R50_NE BOM_R50_SE BOM_R50_SW BOM_R50_NW BOM_R64_NE BOM_R64_SE BOM_R64_SW BOM_R64_NW BOM_ROCI BOM_POCI BOM_EYE BOM_POS_METHOD BOM_PRES_METHOD NADI_LAT NADI_LON NADI_CAT NADI_WIND NADI_PRES WELLINGTON_LAT WELLINGTON_LON WELLINGTON_WIND WELLINGTON_PRES DS824_LAT DS824_LON DS824_STAGE DS824_WIND DS824_PRES TD9636_LAT TD9636_LON TD9636_STAGE TD9636_WIND TD9636_PRES TD9635_LAT TD9635_LON TD9635_WIND TD9635_PRES TD9635_ROCI NEUMANN_LAT NEUMANN_LON NEUMANN_CLASS NEUMANN_WIND NEUMANN_PRES MLC_LAT MLC_LON MLC_CLASS MLC_WIND MLC_PRES USA_GUST BOM_GUST BOM_GUST_PER REUNION_GUST REUNION_GUST_PER USA_SEAHGT USA_SEARAD_NE USA_SEARAD_SE USA_SEARAD_SW USA_SEARAD_NW STORM_SPEED STORM_DIR
1968237N12259 1968 72 EP MM KATHLEEN 1968-08-24 00:00:00 TS 11.6000 -101.400 25 hurdat_epa main 599 596 O________OO___ hurdat_epa EP111968 11.6000 -101.400 TD 25 -1 11.6000 -101.400 TC 25 11.6000 -101.400 1 12 284
1968237N12259 1968 72 EP MM KATHLEEN 1968-08-24 03:00:00 TS 11.7498 -102.005 main 612 601 P________PP___ EP111968 11.7503 -102.012 TD 25 -1 11.7503 -102.012 TC 25 11.7478 -101.974 1 12 284
1968237N12259 1968 72 EP MM KATHLEEN 1968-08-24 06:00:00 TS 11.8992 -102.590 25 hurdat_epa main 621 620 O________OP___ hurdat_epa EP111968 11.9000 -102.600 TD 25 -1 11.9000 -102.600 TC 25 11.8961 -102.549 1 12 285
1968237N12259 1968 72 EP MM KATHLEEN 1968-08-24 09:00:00 TS 12.0491 -103.145 main 631 624 P________PP___ EP111968 12.0498 -103.150 TD 25 -1 12.0498 -103.150 TC 25 12.0463 -103.125 1 11 285
1968237N12259 1968 72 EP MM KATHLEEN 1968-08-24 12:00:00 TS 12.2000 -103.700 25 hurdat_epa main 635 635 O________OO___ hurdat_epa EP111968 12.2000 -103.700 TD 25 -1 12.2000 -103.700 TC 25 12.2000 -103.700 1 12 285
1968237N12259 1968 72 EP MM KATHLEEN 1968-08-24 15:00:00 TS 12.3458 -104.289 main 657 647 P________PP___ EP111968 12.3424 -104.293 TD 25 -1 12.3424 -104.293 TC 25 12.3591 -104.277 1 12 285
1968237N12259 1968 72 EP MM KATHLEEN 1968-08-24 18:00:00 TS 12.5053 -104.893 25 hurdat_epa main 662 659 O________OP___ hurdat_epa EP111968 12.5000 -104.900 TD 25 -1 12.5000 -104.900 TC 25 12.5267 -104.863 1 12 286
1968237N12259 1968 72 EP MM KATHLEEN 1968-08-24 21:00:00 TS 12.6890 -105.482 main 662 659 P________PP___ EP111968 12.6848 -105.485 TD 25 -1 12.6848 -105.485 TC 25 12.7059 -105.468 1 12 289
1968237N12259 1968 72 EP MM KATHLEEN 1968-08-25 00:00:00 TS 12.9000 -106.100 25 hurdat_epa main 665 659 O________OO___ hurdat_epa EP111968 12.9000 -106.100 TD 25 -1 12.9000 -106.100 TC 25 12.9000 -106.100 1 14 290
1968237N12259 1968 72 EP MM KATHLEEN 1968-08-25 03:00:00 TS 13.1470 -106.789 main 680 671 P________PP___ EP111968 13.1499 -106.785 TD 25 -1 13.1499 -106.785 TC 25 13.1354 -106.803 1 15 290
1968237N12259 1968 72 EP MM KATHLEEN 1968-08-25 06:00:00 TS 13.3961 -107.506 25 hurdat_epa main 695 695 O________OP___ hurdat_epa EP111968 13.4000 -107.500 TD 25 -1 13.4000 -107.500 TC 25 13.3806 -107.529 1 15 289
1968237N12259 1968 72 EP MM KATHLEEN 1968-08-25 09:00:00 TS 13.6261 -108.232 main 724 724 P________PP___ EP111968 13.6300 -108.230 TD 25 -1 13.6300 -108.230 TC 25 13.6104 -108.241 1 14 287
1968237N12259 1968 72 EP MM KATHLEEN 1968-08-25 12:00:00 TS 13.8000 -108.900 25 hurdat_epa main 745 745 O________OO___ hurdat_epa EP111968 13.8000 -108.900 TD 25 -1 13.8000 -108.900 TC 25 13.8000 -108.900 2 12 282
1968237N12259 1968 72 EP MM KATHLEEN 1968-08-25 15:00:00 TS 13.8727 -109.436 main 769 769 P________PP___ EP111968 13.8647 -109.430 TD 35 0 13.8647 -109.430 TC 35 13.9049 -109.458 2 10 277
1968237N12259 1968 72 EP MM KATHLEEN 1968-08-25 18:00:00 TS 13.9142 -109.912 45 hurdat_epa main 804 804 O________OP___ hurdat_epa EP111968 13.9000 -109.900 TS 45 0 13.9000 -109.900 TC 45 13.9712 -109.961 2 10 277
1968237N12259 1968 72 EP MM KATHLEEN 1968-08-25 21:00:00 TS 13.9933 -110.407 main 833 833 P________PP___ EP111968 13.9849 -110.400 TS 45 0 13.9849 -110.400 TC 45 14.0270 -110.433 2 10 281
1968237N12259 1968 72 EP MM KATHLEEN 1968-08-26 00:00:00 TS 14.1000 -110.900 45 hurdat_epa main 863 863 O________OO___ hurdat_epa EP111968 14.1000 -110.900 TS 45 0 14.1000 -110.900 TC 45 14.1000 -110.900 2 10 284
1968237N12259 1968 72 EP MM KATHLEEN 1968-08-26 03:00:00 TS 14.2387 -111.398 main 894 894 P________PP___ EP111968 14.2424 -111.400 TS 45 0 14.2424 -111.400 TC 45 14.2239 -111.392 2 10 287
1968237N12259 1968 72 EP MM KATHLEEN 1968-08-26 06:00:00 TS 14.3939 -111.897 45 hurdat_epa main 918 918 O________OP___ hurdat_epa EP111968 14.4000 -111.900 TS 45 0 14.4000 -111.900 TC 45 14.3694 -111.885 2 10 288
1968237N12259 1968 72 EP MM KATHLEEN 1968-08-26 09:00:00 TS 14.5459 -112.391 main 952 945 P________PP___ EP111968 14.5498 -112.393 TS 45 0 14.5498 -112.393 TC 45 14.5302 -112.386 2 10 288
1968237N12259 1968 72 EP MM KATHLEEN 1968-08-26 12:00:00 TS 14.7000 -112.900 45 hurdat_epa main 966 962 O________OO___ hurdat_epa EP111968 14.7000 -112.900 TS 45 0 14.7000 -112.900 TC 45 14.7000 -112.900 2 11 287
1968237N12259 1968 72 EP MM KATHLEEN 1968-08-26 15:00:00 TS 14.8482 -113.439 main 974 967 P________PP___ EP111968 14.8424 -113.443 TS 45 0 14.8424 -113.443 TC 45 14.8714 -113.424 2 11 286
1968237N12259 1968 72 EP MM KATHLEEN 1968-08-26 18:00:00 TS 15.0099 -113.993 45 hurdat_epa main 978 973 O________OP___ hurdat_epa EP111968 15.0000 -114.000 TS 45 0 15.0000 -114.000 TC 45 15.0493 -113.963 2 11 289
1968237N12259 1968 72 EP MM KATHLEEN 1968-08-26 21:00:00 TS 15.2054 -114.538 main 982 982 P________PP___ EP111968 15.1998 -114.543 TS 45 0 15.1998 -114.543 TC 45 15.2276 -114.521 2 11 290
1968237N12259 1968 72 EP MM KATHLEEN 1968-08-27 00:00:00 TS 15.4000 -115.100 45 hurdat_epa main 995 995 O________OO___ hurdat_epa EP111968 15.4000 -115.100 TS 45 0 15.4000 -115.100 TC 45 15.4000 -115.100 2 12 288
1968237N12259 1968 72 EP MM KATHLEEN 1968-08-27 03:00:00 TS 15.5622 -115.692 main 1012 1012 P________PP___ EP111968 15.5573 -115.685 TS 45 0 15.5573 -115.685 TC 45 15.5816 -115.719 2 12 285
1968237N12259 1968 72 EP MM KATHLEEN 1968-08-27 06:00:00 TS 15.7105 -116.311 45 hurdat_epa main 1041 1041 O________OP___ hurdat_epa EP111968 15.7000 -116.300 TS 45 0 15.7000 -116.300 TC 45 15.7526 -116.357 2 13 284
1968237N12259 1968 72 EP MM KATHLEEN 1968-08-27 09:00:00 TS 15.8775 -116.970 main 1072 1072 P________PP___ EP111968 15.8726 -116.965 TS 45 0 15.8726 -116.965 TC 45 15.8973 -116.991 2 13 283
1968237N12259 1968 72 EP MM KATHLEEN 1968-08-27 12:00:00 TS 16.0000 -117.600 45 hurdat_epa main 1108 1108 O________OO___ hurdat_epa EP111968 16.0000 -117.600 TS 45 0 16.0000 -117.600 TC 45 16.0000 -117.600 2 11 277
1968237N12259 1968 72 EP MM KATHLEEN 1968-08-27 15:00:00 TS 16.0230 -118.126 main 1147 1147 P________PP___ EP111968 16.0222 -118.115 TS 45 0 16.0222 -118.115 TC 45 16.0263 -118.167 2 10 270
1968237N12259 1968 72 EP MM KATHLEEN 1968-08-27 18:00:00 TS 16.0029 -118.621 45 hurdat_epa main 1185 1185 O________OP___ hurdat_epa EP111968 16.0000 -118.600 TS 45 0 16.0000 -118.600 TC 45 16.0143 -118.704 2 10 268
1968237N12259 1968 72 EP MM KATHLEEN 1968-08-27 21:00:00 TS 15.9871 -119.169 main 1221 1221 P________PP___ EP111968 15.9850 -119.158 TS 45 0 15.9850 -119.158 TC 45 15.9952 -119.214 2 10 270
1968237N12259 1968 72 EP MM KATHLEEN 1968-08-28 00:00:00 TS 16.0000 -119.700 45 hurdat_epa main 1254 1254 O________OO___ hurdat_epa EP111968 16.0000 -119.700 TS 45 0 16.0000 -119.700 TC 45 16.0000 -119.700 2 10 276
1968237N12259 1968 72 EP MM KATHLEEN 1968-08-28 03:00:00 TS 16.0844 -120.167 main 1278 1278 P________PP___ EP111968 16.0848 -120.165 TS 45 0 16.0848 -120.165 TC 45 16.0830 -120.175 2 9 283
1968237N12259 1968 72 EP MM KATHLEEN 1968-08-28 06:00:00 TS 16.1984 -120.606 45 hurdat_epa main 1298 1298 O________OP___ hurdat_epa EP111968 16.2000 -120.600 TS 45 0 16.2000 -120.600 TC 45 16.1919 -120.629 2 9 285
1968237N12259 1968 72 EP MM KATHLEEN 1968-08-28 09:00:00 TS 16.3069 -121.060 main 1326 1326 P________PP___ EP111968 16.3074 -121.057 TS 45 0 16.3074 -121.057 TC 45 16.3049 -121.069 2 9 283
1968237N12259 1968 72 EP MM KATHLEEN 1968-08-28 12:00:00 TS 16.4000 -121.500 45 hurdat_epa main 1347 1347 O________OO___ hurdat_epa EP111968 16.4000 -121.500 TS 45 0 16.4000 -121.500 TC 45 16.4000 -121.500 2 8 281
1968237N12259 1968 72 EP MM KATHLEEN 1968-08-28 15:00:00 TS 16.4635 -121.904 main 1370 1370 P________PP___ EP111968 16.4648 -121.900 TS 45 0 16.4648 -121.900 TC 45 16.4582 -121.920 2 8 277
1968237N12259 1968 72 EP MM KATHLEEN 1968-08-28 18:00:00 TS 16.4989 -122.307 45 hurdat_epa main 1400 1400 O________OP___ hurdat_epa EP111968 16.5000 -122.300 TS 45 0 16.5000 -122.300 TC 45 16.4943 -122.335 2 8 274
1968237N12259 1968 72 EP MM KATHLEEN 1968-08-28 21:00:00 TS 16.5136 -122.739 main 1432 1432 P________PP___ EP111968 16.5149 -122.735 TS 45 0 16.5149 -122.735 TC 45 16.5082 -122.757 2 9 270
1968237N12259 1968 72 EP MM KATHLEEN 1968-08-29 00:00:00 TS 16.5000 -123.200 45 hurdat_epa main 1472 1472 O________OO___ hurdat_epa EP111968 16.5000 -123.200 TS 45 0 16.5000 -123.200 TC 45 16.5000 -123.200 2 9 267
1968237N12259 1968 72 EP MM KATHLEEN 1968-08-29 03:00:00 TS 16.4627 -123.689 main 1512 1512 P________PP___ EP111968 16.4574 -123.693 TS 45 0 16.4574 -123.693 TC 45 16.4836 -123.674 2 10 265
1968237N12259 1968 72 EP MM KATHLEEN 1968-08-29 06:00:00 TS 16.4089 -124.194 45 hurdat_epa main 1561 1561 O________OP___ hurdat_epa EP111968 16.4000 -124.200 TS 45 0 16.4000 -124.200 TC 45 16.4447 -124.170 2 10 264
1968237N12259 1968 72 EP MM KATHLEEN 1968-08-29 09:00:00 TS 16.3686 -124.696 main 1602 1602 P________PP___ EP111968 16.3649 -124.700 TS 35 0 16.3649 -124.700 TC 35 16.3835 -124.681 2 10 264
1968237N12259 1968 72 EP MM KATHLEEN 1968-08-29 12:00:00 TS 16.3000 -125.200 25 hurdat_epa main 1649 1649 O________OO___ hurdat_epa EP111968 16.3000 -125.200 TD 25 -1 16.3000 -125.200 TC 25 16.3000 -125.200 6 10 258
1968237N12259 1968 72 EP MM KATHLEEN 1968-08-29 15:00:00 TS 16.1611 -125.701 main 1692 1692 P________PP___ EP111968 16.1573 -125.693 TD 25 -1 16.1573 -125.693 TC 25 16.1762 -125.735 6 10 253
1968237N12259 1968 72 EP MM KATHLEEN 1968-08-29 18:00:00 TS 16.0070 -126.215 25 hurdat_epa main 1743 1743 O________OP___ hurdat_epa EP111968 16.0000 -126.200 TD 25 -1 16.0000 -126.200 TC 25 16.0350 -126.273 6 11 255
1968237N12259 1968 72 EP MM KATHLEEN 1968-08-29 21:00:00 TS 15.8823 -126.772 main 1793 1793 P________PP___ EP111968 15.8776 -126.765 TD 25 -1 15.8776 -126.765 TC 25 15.9013 -126.800 6 11 259
1968237N12259 1968 72 EP MM KATHLEEN 1968-08-30 00:00:00 TS 15.8000 -127.300 25 hurdat_epa main 1836 1836 O________OO___ hurdat_epa EP111968 15.8000 -127.300 TD 25 -1 15.8000 -127.300 TC 25 15.8000 -127.300 6 9 264
1968237N12259 1968 72 EP MM KATHLEEN 1968-08-30 03:00:00 TS 15.7812 -127.715 main 1865 1865 P________PP___ EP111968 15.7847 -127.715 TD 25 -1 15.7847 -127.715 TC 25 15.7670 -127.717 6 8 270
1968237N12259 1968 72 EP MM KATHLEEN 1968-08-30 06:00:00 TS 15.7937 -128.102 25 hurdat_epa main 1894 1894 O________OP___ hurdat_epa EP111968 15.8000 -128.100 TD 25 -1 15.8000 -128.100 TC 25 15.7684 -128.112 6 8 271
1968237N12259 1968 72 EP MM KATHLEEN 1968-08-30 09:00:00 TS 15.7969 -128.515 main 1923 1923 P________PP___ EP111968 15.7997 -128.513 TD 25 -1 15.7997 -128.513 TC 25 15.7856 -128.526 6 9 270
1968237N12259 1968 72 EP MM KATHLEEN 1968-08-30 12:00:00 TS 15.8000 -129.000 25 hurdat_epa main 1961 1961 O________OO___ hurdat_epa EP111968 15.8000 -129.000 TD 25 -1 15.8000 -129.000 TC 25 15.8000 -129.000 6 11 270
1968237N12259 1968 72 EP MM KATHLEEN 1968-08-30 15:00:00 TS 15.8026 -129.615 main 2007 2007 P________PP___ EP111968 15.8075 -129.620 TD 25 -1 15.8075 -129.620 TC 25 15.7826 -129.594 6 12 270
1968237N12259 1968 72 EP MM KATHLEEN 1968-08-30 18:00:00 TS 15.7916 -130.290 25 hurdat_epa main 2061 2061 O________OP___ hurdat_epa EP111968 15.8000 -130.300 TD 25 -1 15.8000 -130.300 TC 25 15.7580 -130.248 6 13 267
1968237N12259 1968 72 EP MM KATHLEEN 1968-08-30 21:00:00 TS 15.7458 -130.952 main 2124 2124 P________PP___ EP111968 15.7499 -130.958 TD 25 -1 15.7499 -130.958 TC 25 15.7294 -130.928 6 13 266
1968237N12259 1968 72 EP MM KATHLEEN 1968-08-31 00:00:00 TS 15.7000 -131.600 25 hurdat_epa main 2172 2172 O________OO___ hurdat_epa EP111968 15.7000 -131.600 TD 25 -1 15.7000 -131.600 TC 25 15.7000 -131.600 6 12 268
1968237N12259 1968 72 EP MM KATHLEEN 1968-08-31 03:00:00 TS 15.7011 -132.205 main 2221 2221 P________PP___ EP111968 15.6998 -132.207 TD 25 -1 15.6998 -132.207 TC 25 15.7065 -132.197 6 12 270
1968237N12259 1968 72 EP MM KATHLEEN 1968-08-31 06:00:00 TS 15.7017 -132.797 25 hurdat_epa main 2271 2271 O________OP___ hurdat_epa EP111968 15.7000 -132.800 TD 25 -1 15.7000 -132.800 TC 25 15.7086 -132.784 6 11 269
1968237N12259 1968 72 EP MM KATHLEEN 1968-08-31 09:00:00 TS 15.6800 -133.384 main 2306 2246 P________PP___ EP111968 15.6797 -133.385 TD 25 -1 15.6797 -133.385 TC 25 15.6814 -133.378 6 12 265
1968237N12259 1968 72 EP MM KATHLEEN 1968-08-31 12:00:00 TS 15.6000 -134.000 25 hurdat_epa main 2246 2187 O________OO___ hurdat_epa EP111968 15.6000 -134.000 TD 25 -1 15.6000 -134.000 TC 25 15.6000 -134.000 6 13 259
1968237N12259 1968 72 EP MM KATHLEEN 1968-08-31 15:00:00 TS 15.4272 -134.683 main 2179 2113 P________PP___ EP111968 15.4299 -134.685 TD 25 -1 15.4299 -134.685 TC 25 15.4161 -134.676 6 14 253
1968237N12259 1968 72 EP MM KATHLEEN 1968-08-31 18:00:00 TS 15.1960 -135.396 25 hurdat_epa main 2113 2047 O________OP___ hurdat_epa EP111968 15.2000 -135.400 TD 25 -1 15.2000 -135.400 TC 25 15.1798 -135.379 6 14 251
1968237N12259 1968 72 EP MM KATHLEEN 1968-08-31 21:00:00 TS 14.9515 -136.098 main 2047 1986 P________PP___ EP111968 14.9573 -136.100 TD 25 -1 14.9573 -136.100 TC 25 14.9285 -136.092 6 14 250
1968237N12259 1968 72 EP MM KATHLEEN 1968-09-01 00:00:00 TS 14.7000 -136.800 25 hurdat_epa main 1986 1925 O________OO___ hurdat_epa EP111968 14.7000 -136.800 TD 25 -1 14.7000 -136.800 TC 25 14.7000 -136.800 6 15 249
1968237N12259 1968 72 EP MM KATHLEEN 1968-09-01 03:00:00 TS 14.4286 -137.512 main 1925 1862 P________PP___ EP111968 14.4124 -137.508 TD 25 -1 14.4124 -137.508 TC 25 14.4936 -137.531 6 14 251
1968237N12259 1968 72 EP MM KATHLEEN 1968-09-01 06:00:00 TS 14.2246 -138.210 25 hurdat_epa main 1862 1796 O________OP___ hurdat_epa EP111968 14.2000 -138.200 TD 25 -1 14.2000 -138.200 TC 25 14.3229 -138.248 6 14 258
1968237N12259 1968 72 EP MM KATHLEEN 1968-09-01 09:00:00 TS 14.1491 -138.899 main 1796 1732 P________PP___ EP111968 14.1325 -138.895 TD 25 -1 14.1325 -138.895 TC 25 14.2157 -138.916 6 13 269
1968237N12259 1968 72 EP MM KATHLEEN 1968-09-01 12:00:00 TS 14.2000 -139.500 25 hurdat_epa main 1732 1688 O________OO___ hurdat_epa EP111968 14.2000 -139.500 TD 25 -1 14.2000 -139.500 TC 25 14.2000 -139.500 6 10 282
1968237N12259 1968 72 EP MM KATHLEEN 1968-09-01 15:00:00 TS 14.3560 -139.945 main 1683 1635 P________PP___ EP111968 14.3697 -139.945 TD 25 -1 14.3697 -139.945 TC 25 14.3012 -139.944 6 9 297
1968237N12259 1968 72 EP CP KATHLEEN 1968-09-01 18:00:00 TS 14.5940 -140.288 25 hurdat_epa main 1635 1597 O________OP___ hurdat_epa EP111968 14.6000 -140.300 TD 25 -1 14.6000 -140.300 TC 25 14.4934 -140.309 6 8 306
1968237N12259 1968 72 EP CP KATHLEEN 1968-09-01 21:00:00 TS 14.8231 -140.603 main 1597 1555 P________PP___ EP111968 14.7923 -140.643 TD 25 -1 14.7923 -140.643 TC 25 14.7389 -140.645 6 8 307
1968237N12259 1968 72 EP CP KATHLEEN 1968-09-02 00:00:00 TS 15.0652 -140.935 25 hurdat_epa main 1555 1507 O________OO___ hurdat_epa EP111968 15.0000 -141.000 TD 25 -1 15.0000 -141.000 TC 25 15.0000 -141.000 6 9 304
1968237N12259 1968 72 EP CP KATHLEEN 1968-09-02 03:00:00 TS 15.3147 -141.354 main 1497 1449 P________PP___ EP111968 15.2499 -141.427 TD 25 -1 15.2499 -141.427 TC 25 15.2381 -141.446 6 10 299
1968237N12259 1968 72 EP CP KATHLEEN 1968-09-02 06:00:00 TS 15.5467 -141.837 25 hurdat_epa main 1449 1387 O________OP___ hurdat_epa EP111968 15.5000 -141.900 TD 25 -1 15.5000 -141.900 TC 25 15.4799 -141.920 6 10 296
1968237N12259 1968 72 EP CP KATHLEEN 1968-09-02 09:00:00 TS 15.7765 -142.326 main 1387 1329 P________PP___ EP111968 15.7150 -142.400 TD 25 -1 15.7150 -142.400 TC 25 15.7068 -142.408 6 10 295
1968237N12259 1968 72 EP CP KATHLEEN 1968-09-02 12:00:00 TS 15.9833 -142.817 25 hurdat_epa main 1329 1271 O________OO___ hurdat_epa EP111968 15.9000 -142.900 TD 25 -1 15.9000 -142.900 TC 25 15.9000 -142.900 6 10 293
1968237N12259 1968 72 EP CP KATHLEEN 1968-09-02 15:00:00 TS 16.1609 -143.278 main 1271 1227 P________PP___ EP111968 16.0723 -143.350 TD 25 -1 16.0723 -143.350 TC 25 16.0462 -143.384 6 9 291
1968237N12259 1968 72 EP CP KATHLEEN 1968-09-02 18:00:00 TS 16.3189 -143.725 25 hurdat_epa main 1227 1173 O________OP___ hurdat_epa EP111968 16.2000 -143.800 TD 25 -1 16.2000 -143.800 TC 25 16.1531 -143.860 6 9 288
1968237N12259 1968 72 EP CP KATHLEEN 1968-09-02 21:00:00 TS 16.4510 -144.202 main 1170 1125 P________PP___ EP111968 16.2542 -144.319 TD 25 -1 16.2678 -144.288 TC 25 16.2335 -144.331 6 10 288
1968237N12259 1968 72 EP CP KATHLEEN 1968-09-03 00:00:00 TS 16.6111 -144.667 25 hurdat_epa main 1115 1082 O________OO___ hurdat_epa EP111968 16.3000 -144.800 TD 25 -1 16.3000 -144.800 TC 25 16.3000 -144.800 6 9 310
1968237N12259 1968 72 EP CP KATHLEEN 1968-09-03 03:00:00 NR 17.0339 -144.920 main 1082 1048 P_____________ EP111968 16.4062 -145.156 TD 25 -1 TC 6 7 308
1968237N12259 1968 72 EP CP KATHLEEN 1968-09-03 06:00:00 NR 17.0387 -145.237 main 1051 1021 P_____________ 16.5712 -145.400 25 6 5 269
1968237N12259 1968 72 EP CP KATHLEEN 1968-09-03 09:00:00 NR 17.0242 -145.486 main 1021 1000 P_____________ 16.7757 -145.568 25 6 4 265
1968237N12259 1968 72 EP CP KATHLEEN 1968-09-03 12:00:00 NR 17.0000 -145.700 25 cphc main 1000 O_____________ cphc 17.0000 -145.700 25 4 263

About IBTrACS Database

This database is a web-friendly format of International Best Track Archive for Climate Stewardship (IBTrACS), a global best track data archive curated by NOAA dating back to 1842.

Updated: 2021-10-25